Time;durP1;ratioP1;P1;durP2;ratioP2;P2;SDS_P1;SDS_P2;PMS_P1;PMS_P2;Temp;Humidity;BMP_temperature;BMP_pressure;BME280_temperature;BME280_humidity;BME280_pressure;Samples;Min_cycle;Max_cycle;Signal;HPM_P1;HPM_P2
2021/11/25 03:47:14;;;;;;;60.58;34.28;;;3.00;99.90;;;;;;5044100;24;20106;-77
2021/11/25 03:49:40;;;;;;;65.25;35.95;;;3.10;99.90;;;;;;4832747;29;20330;-77
2021/11/25 03:52:06;;;;;;;60.55;33.75;;;3.10;99.90;;;;;;4826295;29;20030;-78
2021/11/25 03:54:32;;;;;;;58.40;34.58;;;3.20;99.90;;;;;;4823690;29;20042;-78
2021/11/25 03:56:58;;;;;;;63.05;37.70;;;3.20;99.90;;;;;;4801011;29;20030;-78
2021/11/25 03:59:24;;;;;;;69.78;36.75;;;3.20;99.90;;;;;;4831447;29;20041;-79
2021/11/25 04:01:49;;;;;;;71.03;37.33;;;3.30;99.90;;;;;;4832778;29;20184;-78
2021/11/25 04:04:15;;;;;;;66.90;37.00;;;3.30;99.90;;;;;;4858006;29;20351;-78
2021/11/25 04:06:41;;;;;;;69.22;38.38;;;3.40;99.90;;;;;;4835716;29;20033;-78
2021/11/25 04:09:07;;;;;;;66.43;38.25;;;3.40;99.90;;;;;;4820473;29;20405;-78
2021/11/25 04:11:33;;;;;;;68.60;40.05;;;3.40;99.90;;;;;;4820340;29;20116;-78
2021/11/25 04:14:02;;;;;;;70.05;38.92;;;3.50;99.90;;;;;;4850640;29;20034;-78
2021/11/25 04:16:28;;;;;;;65.32;37.88;;;3.50;99.90;;;;;;4835787;29;20061;-78
2021/11/25 04:18:53;;;;;;;71.25;39.15;;;3.60;99.90;;;;;;4850757;29;20042;-79
2021/11/25 04:21:19;;;;;;;71.20;40.28;;;3.60;99.90;;;;;;4850683;29;20118;-78
2021/11/25 04:23:45;;;;;;;73.97;41.08;;;3.70;99.90;;;;;;4835777;29;20029;-78
2021/11/25 04:26:11;;;;;;;73.45;39.47;;;3.70;99.90;;;;;;4850502;29;20098;-79
2021/11/25 04:28:37;;;;;;;67.72;38.58;;;3.80;99.90;;;;;;4835765;29;20018;-79
2021/11/25 04:36:32;;;;;;;69.20;38.95;;;3.90;99.90;;;;;;4837567;29;20030;-78
2021/11/25 04:38:59;;;;;;;64.20;38.90;;;3.90;99.90;;;;;;4835311;29;20341;-78
2021/11/25 04:41:25;;;;;;;72.18;40.63;;;4.00;99.90;;;;;;4850473;29;20286;-78
2021/11/25 04:43:51;;;;;;;75.15;42.72;;;4.00;99.90;;;;;;4850547;29;20123;-78
2021/11/25 04:46:17;;;;;;;69.05;37.83;;;4.10;99.90;;;;;;4845927;29;20050;-79
2021/11/25 04:48:43;;;;;;;69.32;38.20;;;4.20;99.90;;;;;;4832086;29;20076;-78
2021/11/25 04:51:12;;;;;;;66.70;40.33;;;4.20;99.90;;;;;;4836109;29;20069;-78
2021/11/25 04:53:38;;;;;;;68.93;39.38;;;4.30;99.80;;;;;;4810092;29;20322;-78
2021/11/25 04:56:04;;;;;;;75.10;40.95;;;4.40;99.70;;;;;;4811870;29;20087;-78
2021/11/25 04:58:29;;;;;;;71.72;39.53;;;4.40;99.50;;;;;;4816811;29;20041;-78
2021/11/25 05:00:55;;;;;;;68.75;39.13;;;4.40;99.60;;;;;;4817054;29;20041;-78
2021/11/25 05:03:21;;;;;;;65.57;39.95;;;4.50;99.60;;;;;;4802025;29;20043;-78
2021/11/25 05:05:47;;;;;;;80.20;41.80;;;4.50;99.40;;;;;;4793380;29;20064;-78
2021/11/25 05:08:13;;;;;;;70.90;41.10;;;4.60;99.30;;;;;;4831588;29;20337;-78
2021/11/25 05:10:40;;;;;;;76.50;39.00;;;4.70;99.20;;;;;;4805397;29;20041;-78
2021/11/25 05:13:06;;;;;;;69.60;39.83;;;4.70;99.00;;;;;;4811698;29;20066;-78
2021/11/25 05:15:31;;;;;;;72.65;40.08;;;4.70;99.10;;;;;;4797961;29;20074;-78
2021/11/25 05:17:57;;;;;;;70.13;40.67;;;4.80;99.00;;;;;;4843116;29;20036;-79
2021/11/25 05:20:23;;;;;;;72.47;40.72;;;4.80;98.90;;;;;;4842226;29;20027;-79
2021/11/25 05:22:50;;;;;;;73.47;40.75;;;4.70;98.90;;;;;;4822671;29;20237;-79
2021/11/25 05:25:16;;;;;;;69.57;39.53;;;4.80;98.90;;;;;;4849017;29;20096;-79
2021/11/25 05:27:43;;;;;;;70.70;40.03;;;4.80;98.90;;;;;;4835241;29;20034;-79
2021/11/25 05:30:10;;;;;;;73.25;40.45;;;4.80;98.90;;;;;;4813945;29;20078;-79
2021/11/25 05:32:36;;;;;;;78.53;42.15;;;4.80;98.90;;;;;;4832099;29;20038;-79
2021/11/25 05:35:03;;;;;;;73.23;41.03;;;4.80;98.80;;;;;;4832185;29;20030;-79
2021/11/25 05:37:29;;;;;;;77.70;42.28;;;4.90;98.80;;;;;;4853748;29;20364;-79
2021/11/25 05:39:55;;;;;;;80.20;43.05;;;4.90;98.70;;;;;;4851129;29;20038;-79
2021/11/25 05:42:20;;;;;;;72.05;40.60;;;4.90;98.70;;;;;;4805022;29;20177;-79
2021/11/25 05:44:47;;;;;;;73.22;39.75;;;4.90;98.70;;;;;;4848462;29;20031;-79
2021/11/25 05:47:12;;;;;;;77.72;41.88;;;4.90;98.50;;;;;;4834837;29;20338;-79
2021/11/25 05:49:38;;;;;;;72.95;39.78;;;4.90;98.50;;;;;;4863013;29;20030;-79
2021/11/25 05:52:05;;;;;;;72.35;42.53;;;4.90;98.60;;;;;;4831804;29;20034;-79
2021/11/25 05:54:31;;;;;;;68.18;39.80;;;4.90;98.60;;;;;;4837214;29;20042;-78
2021/11/25 05:56:57;;;;;;;72.28;40.97;;;4.90;98.50;;;;;;4793268;29;20242;-79
2021/11/25 05:59:23;;;;;;;72.73;40.80;;;4.80;98.80;;;;;;4799348;29;20066;-79
2021/11/25 06:01:49;;;;;;;80.53;42.33;;;4.80;98.70;;;;;;4833691;29;20076;-79
2021/11/25 06:04:15;;;;;;;79.30;43.95;;;4.80;98.70;;;;;;4819007;29;20038;-79
2021/11/25 06:06:41;;;;;;;81.55;43.45;;;4.80;98.60;;;;;;4833371;29;20046;-79
2021/11/25 06:09:06;;;;;;;75.63;41.25;;;4.80;98.60;;;;;;4806331;29;20042;-79
2021/11/25 06:11:32;;;;;;;80.50;43.47;;;4.80;98.60;;;;;;4831535;29;20227;-79
2021/11/25 06:13:58;;;;;;;77.68;41.70;;;4.80;98.70;;;;;;4848768;29;20042;-79
2021/11/25 06:16:25;;;;;;;75.30;41.42;;;4.70;98.70;;;;;;4819990;29;20041;-79
2021/11/25 06:18:51;;;;;;;79.25;41.05;;;4.70;98.70;;;;;;4843658;29;20031;-79
2021/11/25 06:21:17;;;;;;;78.45;42.85;;;4.70;98.70;;;;;;4837451;29;20068;-79
2021/11/25 06:23:44;;;;;;;73.57;41.00;;;4.70;98.80;;;;;;4821881;29;20034;-79
2021/11/25 06:26:09;;;;;;;71.50;39.60;;;4.70;98.80;;;;;;4823514;29;20043;-79
2021/11/25 06:28:35;;;;;;;76.72;40.20;;;4.60;98.90;;;;;;4804227;29;20094;-78
2021/11/25 06:31:01;;;;;;;77.93;41.55;;;4.60;98.90;;;;;;4816441;29;20104;-78
2021/11/25 06:33:27;;;;;;;83.78;44.38;;;4.60;98.90;;;;;;4843201;29;20098;-78
2021/11/25 06:35:53;;;;;;;99.93;49.63;;;4.60;98.90;;;;;;4815884;29;20031;-79
2021/11/25 06:38:19;;;;;;;93.53;47.83;;;4.60;98.90;;;;;;4824872;29;20043;-79
2021/11/25 06:40:46;;;;;;;85.47;45.15;;;4.60;99.00;;;;;;4806924;29;20147;-78
2021/11/25 06:43:12;;;;;;;87.03;46.50;;;4.60;99.00;;;;;;4820567;29;20372;-78
2021/11/25 06:45:41;;;;;;;92.68;47.85;;;4.60;99.00;;;;;;4817649;29;20043;-78
2021/11/25 06:48:07;;;;;;;86.43;44.25;;;4.60;98.90;;;;;;4803328;29;20030;-79
2021/11/25 06:50:33;;;;;;;77.63;42.55;;;4.70;98.90;;;;;;4814798;29;20042;-78
2021/11/25 06:52:59;;;;;;;86.80;44.00;;;4.60;99.00;;;;;;4818020;29;20050;-79
2021/11/25 06:55:25;;;;;;;83.15;39.83;;;4.60;99.00;;;;;;4808710;29;20031;-79
2021/11/25 06:57:51;;;;;;;80.32;43.40;;;4.60;99.00;;;;;;4819342;29;20057;-78
2021/11/25 07:00:21;;;;;;;83.22;43.00;;;4.60;98.90;;;;;;4816120;29;20229;-78
2021/11/25 07:02:47;;;;;;;79.78;42.38;;;4.60;99.00;;;;;;4814516;29;20029;-79
2021/11/25 07:05:13;;;;;;;82.57;43.33;;;4.60;99.00;;;;;;4805393;29;20042;-79
2021/11/25 07:07:39;;;;;;;75.82;42.83;;;4.60;98.90;;;;;;4808168;29;20058;-78
2021/11/25 07:10:08;;;;;;;85.25;44.95;;;4.60;98.80;;;;;;4832446;29;20043;-79
2021/11/25 07:12:35;;;;;;;79.25;43.53;;;4.70;98.80;;;;;;4844705;29;20030;-79
2021/11/25 07:15:03;;;;;;;72.78;41.78;;;4.70;98.70;;;;;;4846942;29;20113;-79
2021/11/25 07:17:29;;;;;;;74.82;41.55;;;4.70;98.70;;;;;;4827765;29;20069;-79
2021/11/25 07:19:55;;;;;;;75.88;41.25;;;4.70;98.60;;;;;;4830839;29;20100;-79
2021/11/25 07:22:20;;;;;;;74.15;41.17;;;4.70;98.50;;;;;;4802390;29;20113;-79
2021/11/25 07:24:46;;;;;;;79.55;43.45;;;4.80;98.50;;;;;;4802104;29;20034;-79
2021/11/25 07:27:12;;;;;;;80.05;42.85;;;4.80;98.50;;;;;;4827955;29;20027;-79
2021/11/25 07:29:38;;;;;;;77.70;42.10;;;4.80;98.50;;;;;;4804758;29;20215;-79
2021/11/25 07:32:04;;;;;;;77.18;42.53;;;4.90;98.40;;;;;;4826957;29;20078;-79
2021/11/25 07:34:32;;;;;;;87.30;43.90;;;4.90;98.30;;;;;;4816521;29;20469;-79
2021/11/25 07:36:58;;;;;;;81.13;43.83;;;4.90;98.20;;;;;;4818423;29;20038;-79
2021/11/25 07:39:25;;;;;;;81.65;43.30;;;4.90;98.30;;;;;;4815277;29;20278;-79
2021/11/25 07:41:52;;;;;;;77.43;42.25;;;5.00;98.20;;;;;;4831687;29;20030;-79
2021/11/25 07:44:17;;;;;;;79.03;43.42;;;5.00;98.20;;;;;;4832847;29;20199;-79
2021/11/25 07:46:44;;;;;;;78.15;42.60;;;5.00;98.10;;;;;;4817386;29;20055;-78
2021/11/25 07:49:11;;;;;;;78.18;43.08;;;5.10;98.10;;;;;;4809830;29;20026;-79
2021/11/25 07:51:37;;;;;;;77.35;42.85;;;5.10;98.40;;;;;;4824812;29;20045;-79
2021/11/25 07:54:07;;;;;;;84.80;45.07;;;5.10;97.90;;;;;;4815139;29;20060;-79
2021/11/25 07:56:34;;;;;;;81.53;42.90;;;5.20;97.80;;;;;;4831077;29;20101;-79
2021/11/25 07:58:59;;;;;;;77.28;43.50;;;5.20;97.60;;;;;;4818033;29;20340;-79
2021/11/25 08:01:25;;;;;;;81.95;41.22;;;5.30;97.60;;;;;;4809497;29;20042;-79
2021/11/25 08:03:51;;;;;;;73.43;40.25;;;5.30;97.50;;;;;;4831563;29;20046;-79
2021/11/25 08:06:17;;;;;;;74.20;40.67;;;5.40;97.20;;;;;;4825371;29;20038;-79
2021/11/25 08:08:43;;;;;;;80.22;42.25;;;5.40;97.30;;;;;;4814949;29;20026;-80
2021/11/25 08:11:09;;;;;;;77.38;42.40;;;5.50;97.10;;;;;;4803182;29;20080;-79
2021/11/25 08:13:35;;;;;;;75.72;40.72;;;5.50;97.10;;;;;;4832031;29;20067;-79
2021/11/25 08:16:01;;;;;;;73.70;41.08;;;5.50;97.00;;;;;;4814488;29;20109;-80
2021/11/25 08:18:26;;;;;;;80.85;41.60;;;5.60;97.10;;;;;;4817425;29;20029;-79
2021/11/25 08:20:52;;;;;;;77.85;41.45;;;5.60;96.60;;;;;;4814656;29;20326;-79
2021/11/25 08:23:18;;;;;;;71.05;39.80;;;5.60;96.60;;;;;;4833722;29;20038;-80
2021/11/25 08:25:44;;;;;;;80.28;40.80;;;5.60;96.50;;;;;;4801984;29;20042;-80
2021/11/25 08:28:10;;;;;;;79.32;41.13;;;5.60;96.30;;;;;;4824241;29;20333;-80
2021/11/25 08:30:36;;;;;;;71.25;38.53;;;5.60;96.20;;;;;;4813561;29;20049;-80
2021/11/25 08:33:03;;;;;;;68.35;39.05;;;5.60;96.50;;;;;;4834351;29;20045;-80
2021/11/25 08:35:29;;;;;;;67.35;38.00;;;5.70;96.60;;;;;;4822635;29;20101;-80
2021/11/25 08:37:56;;;;;;;71.00;38.28;;;5.70;96.10;;;;;;4849471;29;20325;-80
2021/11/25 08:40:22;;;;;;;72.68;40.35;;;5.80;95.70;;;;;;4802060;29;20043;-80
2021/11/25 08:42:50;;;;;;;74.07;39.73;;;5.80;96.00;;;;;;4803180;29;20075;-80
2021/11/25 08:45:17;;;;;;;67.13;39.47;;;5.90;95.90;;;;;;4832422;29;20471;-80
2021/11/25 08:47:43;;;;;;;73.68;39.58;;;6.00;95.90;;;;;;4828877;29;20046;-80
2021/11/25 08:50:11;;;;;;;68.80;36.90;;;6.00;95.50;;;;;;4838287;29;20129;-80
2021/11/25 08:52:37;;;;;;;69.38;40.15;;;6.10;95.50;;;;;;4817926;29;20326;-80
2021/11/25 08:55:04;;;;;;;78.38;40.20;;;6.10;95.30;;;;;;4834240;29;20146;-80
2021/11/25 08:57:29;;;;;;;;;;;6.00;95.20;;;;;;4833059;29;20034;-80
2021/11/25 08:59:55;;;;;;;75.23;39.17;;;6.10;95.20;;;;;;4851843;29;19908;-80
2021/11/25 09:02:22;;;;;;;68.10;37.03;;;6.20;95.20;;;;;;4851747;29;20368;-80
2021/11/25 09:04:50;;;;;;;68.20;37.28;;;6.30;95.10;;;;;;4846107;29;20026;-80
2021/11/25 09:07:16;;;;;;;68.75;36.85;;;6.30;94.70;;;;;;4837486;29;20252;-80
2021/11/25 09:09:41;;;;;;;68.85;37.63;;;6.40;94.70;;;;;;4831480;29;20053;-80
2021/11/25 09:12:08;;;;;;;70.40;35.28;;;6.50;94.70;;;;;;4801115;29;20099;-80
2021/11/25 09:14:33;;;;;;;68.63;38.20;;;6.50;94.10;;;;;;4830092;29;20046;-80
2021/11/25 09:16:59;;;;;;;83.15;41.97;;;6.60;94.20;;;;;;4838352;29;20045;-80
2021/11/25 09:19:25;;;;;;;82.28;41.15;;;6.70;94.20;;;;;;4849943;29;20044;-80
2021/11/25 09:21:51;;;;;;;69.38;37.97;;;6.80;93.70;;;;;;4804725;29;20034;-80
2021/11/25 09:24:18;;;;;;;71.22;38.20;;;6.90;93.30;;;;;;4814500;29;20042;-79
2021/11/25 09:26:44;;;;;;;85.40;37.07;;;6.80;93.30;;;;;;4863981;29;20316;-79
2021/11/25 09:29:11;;;;;;;59.78;34.75;;;6.90;93.10;;;;;;4831436;29;20272;-80
2021/11/25 09:31:37;;;;;;;;;;;6.90;92.80;;;;;;4834471;29;20322;-80
2021/11/25 09:34:04;;;;;;;63.20;35.20;;;6.90;92.70;;;;;;4840541;29;19953;-80
2021/11/25 09:36:32;;;;;;;62.08;35.53;;;6.80;92.60;;;;;;4847941;29;20283;-79
2021/11/25 09:38:59;;;;;;;62.60;35.03;;;6.90;92.60;;;;;;4830856;29;20304;-79
2021/11/25 09:41:26;;;;;;;65.30;35.20;;;6.90;92.50;;;;;;4827398;29;20157;-79
2021/11/25 09:43:52;;;;;;;58.42;32.95;;;7.00;92.50;;;;;;4801135;29;20079;-79
2021/11/25 09:46:21;;;;;;;57.50;32.72;;;7.00;92.30;;;;;;4787080;29;20177;-79
2021/11/25 09:48:47;;;;;;;58.88;35.70;;;7.10;92.30;;;;;;4823584;29;20228;-79
2021/11/25 09:51:13;;;;;;;60.20;33.83;;;7.10;92.10;;;;;;4815650;29;20042;-80
2021/11/25 09:53:39;;;;;;;65.88;35.10;;;7.20;91.80;;;;;;4771645;29;20357;-79
2021/11/25 09:56:07;;;;;;;59.17;33.08;;;7.30;92.00;;;;;;4799390;29;20039;-79
2021/11/25 09:58:35;;;;;;;57.30;31.25;;;7.50;91.70;;;;;;4838664;29;20038;-79
2021/11/25 10:01:13;;;;;;;57.25;33.20;;;7.50;90.70;;;;;;4813995;29;20118;-79
2021/11/25 10:03:42;;;;;;;56.80;33.83;;;7.50;90.80;;;;;;4822602;29;20365;-79
2021/11/25 10:06:08;;;;;;;55.30;31.75;;;7.50;90.80;;;;;;4811303;29;20234;-79
2021/11/25 10:08:48;;;;;;;55.67;32.28;;;7.50;90.40;;;;;;4820456;29;20026;-79
2021/11/25 10:11:18;;;;;;;53.78;31.65;;;7.60;90.90;;;;;;4804081;29;20222;-79
2021/11/25 10:13:54;;;;;;;57.17;33.15;;;7.70;90.90;;;;;;4848062;29;20034;-78
2021/11/25 10:16:25;;;;;;;55.05;30.95;;;7.70;90.30;;;;;;4816753;29;20026;-78
2021/11/25 10:18:51;;;;;;;54.35;28.80;;;7.70;90.20;;;;;;4836887;29;20022;-78
2021/11/25 10:21:22;;;;;;;52.97;31.25;;;7.80;90.10;;;;;;4847054;29;20445;-79
2021/11/25 10:23:51;;;;;;;55.70;31.75;;;7.80;89.50;;;;;;4829710;29;20080;-79
2021/11/25 10:26:23;;;;;;;47.95;29.23;;;7.80;89.80;;;;;;4830015;29;20200;-79
2021/11/25 10:29:00;;;;;;;49.60;29.83;;;7.80;89.70;;;;;;4832128;29;20274;-79
2021/11/25 10:31:29;;;;;;;48.83;28.42;;;7.90;89.80;;;;;;4828685;29;20049;-79
2021/11/25 10:34:02;;;;;;;51.67;29.40;;;7.90;88.50;;;;;;4830088;29;20033;-78
2021/11/25 10:42:04;;;;;;;53.67;29.00;;;7.80;87.90;;;;;;4866297;29;20077;-79
2021/11/25 10:44:39;;;;;;;47.90;28.45;;;7.80;88.10;;;;;;4852791;29;20369;-79
2021/11/25 10:47:13;;;;;;;46.97;28.80;;;7.70;88.20;;;;;;4859856;29;20121;-79
2021/11/25 10:49:49;;;;;;;50.28;29.08;;;7.80;89.20;;;;;;4861714;29;20030;-79
2021/11/25 10:52:36;;;;;;;51.35;29.20;;;7.80;88.10;;;;;;4861648;29;20227;-79
2021/11/25 10:55:07;;;;;;;55.15;29.00;;;7.90;88.10;;;;;;4872523;29;20125;-79
2021/11/25 10:57:37;;;;;;;46.30;27.75;;;7.90;87.60;;;;;;4852291;29;20089;-79
2021/11/25 11:00:26;;;;;;;49.58;29.77;;;8.00;88.20;;;;;;4870048;29;20071;-79
2021/11/25 11:03:12;;;;;;;58.58;31.20;;;8.10;87.90;;;;;;4856816;29;20150;-79
2021/11/25 11:06:04;;;;;;;56.80;31.83;;;8.10;88.30;;;;;;4791001;29;20090;-79
2021/11/25 11:08:43;;;;;;;58.92;31.67;;;8.10;88.90;;;;;;4744079;30;20116;-79
2021/11/25 11:11:10;;;;;;;53.60;32.70;;;8.10;89.40;;;;;;4758989;30;20041;-79
2021/11/25 11:14:00;;;;;;;59.33;31.83;;;8.10;89.30;;;;;;4764386;30;20114;-79
2021/11/25 11:16:30;;;;;;;57.95;33.17;;;8.10;89.60;;;;;;4760354;30;20150;-80
2021/11/25 11:19:02;;;;;;;58.80;34.03;;;8.10;89.60;;;;;;4749585;30;20559;-79
2021/11/25 11:21:44;;;;;;;62.30;33.13;;;8.10;89.20;;;;;;4744146;30;20071;-79
2021/11/25 11:24:13;;;;;;;54.90;32.72;;;8.10;89.90;;;;;;4730406;30;20389;-79
2021/11/25 11:26:58;;;;;;;55.28;33.25;;;8.10;89.10;;;;;;4730266;30;20239;-79
2021/11/25 11:29:26;;;;;;;61.55;33.38;;;8.20;89.70;;;;;;4749318;30;20041;-79
2021/11/25 11:31:56;;;;;;;61.25;33.15;;;8.10;89.70;;;;;;4749395;30;20309;-79
2021/11/25 11:34:23;;;;;;;58.08;32.17;;;8.20;89.00;;;;;;4742921;30;20033;-80
2021/11/25 11:36:52;;;;;;;62.00;33.97;;;8.20;89.00;;;;;;4743431;30;20044;-80
2021/11/25 11:39:20;;;;;;;57.53;33.67;;;8.20;89.10;;;;;;4750570;30;20059;-79
2021/11/25 11:41:50;;;;;;;59.88;33.08;;;8.20;89.50;;;;;;4752120;30;20040;-79
2021/11/25 11:44:20;;;;;;;61.88;34.72;;;8.20;88.50;;;;;;4770801;29;20035;-79
2021/11/25 11:46:46;;;;;;;58.33;34.05;;;8.20;88.70;;;;;;4835565;29;20064;-79
2021/11/25 11:49:13;;;;;;;53.47;33.33;;;8.20;88.30;;;;;;4830545;29;20030;-79
2021/11/25 11:51:39;;;;;;;58.47;32.95;;;8.20;88.40;;;;;;4831748;29;20238;-79
2021/11/25 11:54:17;;;;;;;60.75;34.17;;;8.20;88.90;;;;;;4815836;29;20042;-79
2021/11/25 11:56:44;;;;;;;57.38;32.88;;;8.20;88.50;;;;;;4831352;29;20353;-79
2021/11/25 11:59:11;;;;;;;57.33;33.03;;;8.20;88.40;;;;;;4833930;29;20030;-79
2021/11/25 12:01:38;;;;;;;57.47;31.88;;;8.20;87.90;;;;;;4816338;29;20061;-79
2021/11/25 12:04:10;;;;;;;60.45;34.75;;;8.10;88.00;;;;;;4832338;29;20030;-79
2021/11/25 12:06:45;;;;;;;56.95;32.38;;;8.10;88.40;;;;;;4832206;29;20026;-79
2021/11/25 12:09:22;;;;;;;57.33;35.38;;;8.10;88.80;;;;;;4825576;29;20029;-79
2021/11/25 12:11:48;;;;;;;58.35;33.70;;;8.20;89.40;;;;;;4824622;29;20034;-79
2021/11/25 12:14:31;;;;;;;55.70;33.25;;;8.20;88.80;;;;;;4828662;29;20160;-79
2021/11/25 12:17:04;;;;;;;59.30;33.53;;;8.20;87.90;;;;;;4830779;29;20049;-80
2021/11/25 12:19:36;;;;;;;57.90;35.25;;;8.20;88.50;;;;;;4827820;29;20034;-80
2021/11/25 12:22:14;;;;;;;59.47;34.88;;;8.30;89.00;;;;;;4827777;29;20035;-80
2021/11/25 12:24:50;;;;;;;57.30;33.08;;;8.40;89.40;;;;;;4829714;29;20030;-80
2021/11/25 12:27:25;;;;;;;62.40;34.92;;;8.40;88.40;;;;;;4841038;29;20090;-80
2021/11/25 12:29:55;;;;;;;60.00;34.88;;;8.40;88.40;;;;;;4828261;29;20332;-80
2021/11/25 12:32:28;;;;;;;57.35;34.70;;;8.40;88.50;;;;;;4831471;29;20033;-80
2021/11/25 12:35:13;;;;;;;73.78;35.55;;;8.40;88.70;;;;;;4830431;29;20049;-80
2021/11/25 12:37:52;;;;;;;59.72;34.30;;;8.40;88.70;;;;;;4833852;29;20352;-79
2021/11/25 12:40:18;;;;;;;60.00;33.78;;;8.30;88.60;;;;;;4825299;29;20388;-79
2021/11/25 12:42:56;;;;;;;65.45;36.40;;;8.30;89.20;;;;;;4848123;29;20030;-79
2021/11/25 12:45:39;;;;;;;61.22;36.22;;;8.30;88.60;;;;;;4831959;29;20022;-80
2021/11/25 12:48:05;;;;;;;72.35;40.85;;;8.20;89.30;;;;;;4826779;29;20075;-80
2021/11/25 12:50:33;;;;;;;87.80;50.00;;;8.20;89.60;;;;;;4820100;29;20050;-80
2021/11/25 12:53:11;;;;;;;71.68;44.28;;;8.20;89.80;;;;;;4824018;29;20035;-80
2021/11/25 12:55:38;;;;;;;70.70;34.95;;;8.30;89.10;;;;;;4841228;29;20027;-80
2021/11/25 12:58:05;;;;;;;57.33;34.80;;;8.20;89.40;;;;;;4842289;29;20061;-80
2021/11/25 13:00:33;;;;;;;64.35;34.42;;;8.20;89.30;;;;;;4800151;29;20062;-80
2021/11/25 13:03:11;;;;;;;61.60;33.17;;;8.20;89.60;;;;;;4845979;29;20038;-80
2021/11/25 13:05:39;;;;;;;56.80;33.95;;;8.20;89.10;;;;;;4824362;29;20101;-81
2021/11/25 13:08:08;;;;;;;56.53;32.33;;;8.10;88.80;;;;;;4846421;29;20026;-81
2021/11/25 13:10:39;;;;;;;62.47;34.10;;;8.10;89.00;;;;;;4804861;29;20034;-80
2021/11/25 13:13:13;;;;;;;58.63;34.70;;;8.10;89.30;;;;;;4840693;29;20284;-81
2021/11/25 13:16:00;;;;;;;55.53;33.75;;;8.10;89.00;;;;;;4838342;29;20038;-81
2021/11/25 13:18:43;;;;;;;62.58;35.58;;;8.10;89.30;;;;;;4831553;29;20105;-81
2021/11/25 13:21:29;;;;;;;57.42;33.40;;;8.10;89.40;;;;;;4832956;29;20041;-81
2021/11/25 13:24:00;;;;;;;63.00;34.50;;;8.10;89.80;;;;;;4836166;29;20350;-81
2021/11/25 13:26:39;;;;;;;62.40;35.20;;;8.10;90.00;;;;;;4832009;29;20321;-81
2021/11/25 13:29:05;;;;;;;61.47;35.90;;;8.00;89.90;;;;;;4824979;29;20026;-81
2021/11/25 13:31:31;;;;;;;62.97;36.75;;;8.10;90.10;;;;;;4834580;29;20065;-81
2021/11/25 13:34:11;;;;;;;61.25;34.75;;;8.00;90.20;;;;;;4806719;29;20408;-81
2021/11/25 13:36:48;;;;;;;68.20;33.92;;;8.10;90.10;;;;;;4828813;29;20082;-81
2021/11/25 13:39:25;;;;;;;62.70;35.05;;;8.20;90.00;;;;;;4862075;29;20109;-81
2021/11/25 13:41:56;;;;;;;;;;;8.20;90.00;;;;;;4820091;29;20391;-81
2021/11/25 13:44:24;;;;;;;57.35;33.22;;;8.20;89.70;;;;;;4832247;29;19971;-81
2021/11/25 13:46:53;;;;;;;59.28;31.85;;;8.20;90.00;;;;;;4823925;29;20365;-81
2021/11/25 13:49:21;;;;;;;64.00;33.78;;;8.10;90.10;;;;;;4820454;29;20057;-81
2021/11/25 13:51:48;;;;;;;58.10;34.40;;;8.10;90.20;;;;;;4833752;29;20289;-81
2021/11/25 13:54:22;;;;;;;58.55;33.22;;;8.00;90.20;;;;;;4827573;29;20037;-81
2021/11/25 13:56:54;;;;;;;51.22;31.63;;;8.00;90.30;;;;;;4842431;29;20030;-81
2021/11/25 13:59:23;;;;;;;63.40;33.75;;;7.90;90.50;;;;;;4833707;29;20030;-81
2021/11/25 14:01:49;;;;;;;59.17;33.08;;;7.90;90.60;;;;;;4834551;29;20041;-81
2021/11/25 14:04:17;;;;;;;60.50;34.60;;;7.90;90.70;;;;;;4804129;29;20030;-80
2021/11/25 14:06:43;;;;;;;63.40;34.45;;;7.90;90.80;;;;;;4818358;29;20361;-80
2021/11/25 14:09:15;;;;;;;58.65;32.40;;;7.90;90.90;;;;;;4838363;29;20049;-80
2021/11/25 14:11:52;;;;;;;57.20;33.13;;;7.80;91.20;;;;;;4819056;29;20042;-80
2021/11/25 14:14:18;;;;;;;;;;;7.80;91.00;;;;;;4819567;29;20057;-80
2021/11/25 14:16:49;;;;;;;57.93;33.60;;;7.80;91.10;;;;;;4833590;29;19915;-80
2021/11/25 14:19:21;;;;;;;63.35;34.05;;;7.70;91.10;;;;;;4824422;29;20033;-80
2021/11/25 14:21:50;;;;;;;66.93;34.40;;;7.70;91.20;;;;;;4822629;29;20350;-80
2021/11/25 14:24:22;;;;;;;64.20;34.15;;;7.70;91.40;;;;;;4855108;29;20034;-80
2021/11/25 14:27:03;;;;;;;63.72;34.85;;;7.60;91.60;;;;;;4835700;29;20034;-80
2021/11/25 14:32:27;;;;;;;64.03;34.63;;;7.50;91.80;;;;;;4836144;29;20247;-80
2021/11/25 14:34:53;;;;;;;61.03;35.95;;;7.50;91.90;;;;;;4824430;29;20349;-80
2021/11/25 14:37:22;;;;;;;63.70;34.97;;;7.40;92.00;;;;;;4803511;29;20042;-80
2021/11/25 14:39:49;;;;;;;64.53;34.25;;;7.40;92.20;;;;;;4850085;29;20337;-80
2021/11/25 14:42:20;;;;;;;62.42;35.63;;;7.40;92.30;;;;;;4850552;29;20045;-80
2021/11/25 14:44:47;;;;;;;67.95;38.53;;;7.30;92.50;;;;;;4855751;29;20025;-80
2021/11/25 14:47:16;;;;;;;71.60;39.20;;;7.20;92.70;;;;;;4810046;29;20058;-80
2021/11/25 14:49:44;;;;;;;67.18;38.08;;;7.20;92.80;;;;;;4813733;29;20037;-80
2021/11/25 14:52:23;;;;;;;70.57;36.40;;;7.10;92.80;;;;;;4820904;29;20412;-80
2021/11/25 14:55:12;;;;;;;68.70;38.38;;;7.10;93.10;;;;;;4816502;29;20111;-80
2021/11/25 14:57:40;;;;;;;72.40;37.60;;;7.00;93.70;;;;;;4846672;29;20040;-81
2021/11/25 15:00:16;;;;;;;64.55;36.50;;;7.00;93.50;;;;;;4832721;29;20094;-81
2021/11/25 15:02:43;;;;;;;72.72;39.17;;;6.90;93.80;;;;;;4857721;29;20068;-80
2021/11/25 15:05:12;;;;;;;70.47;36.30;;;6.80;93.80;;;;;;4829522;29;20112;-81
2021/11/25 15:07:39;;;;;;;67.05;38.17;;;6.80;94.00;;;;;;4832476;29;20059;-81
2021/11/25 15:10:06;;;;;;;;;;;6.80;94.00;;;;;;4821314;29;20097;-81
2021/11/25 15:12:31;;;;;;;71.97;38.80;;;6.70;94.20;;;;;;4849848;29;19913;-81
2021/11/25 15:15:07;;;;;;;72.97;39.78;;;6.70;94.10;;;;;;4816118;29;20048;-81
2021/11/25 15:17:34;;;;;;;69.00;37.95;;;6.60;94.30;;;;;;4843664;29;20242;-81
2021/11/25 15:20:00;;;;;;;70.60;36.88;;;6.60;94.40;;;;;;4817641;29;20338;-80
2021/11/25 15:22:26;;;;;;;64.25;35.75;;;6.60;94.50;;;;;;4827323;29;20339;-81
2021/11/25 15:24:52;;;;;;;73.57;42.30;;;6.50;94.60;;;;;;4807569;29;20149;-81
2021/11/25 15:27:20;;;;;;;76.82;42.67;;;6.50;94.80;;;;;;4790199;29;20341;-81
2021/11/25 15:29:47;;;;;;;78.57;42.08;;;6.40;94.70;;;;;;4813660;29;20282;-81
2021/11/25 15:32:12;;;;;;;81.80;44.30;;;6.40;95.00;;;;;;4825951;29;20244;-81
2021/11/25 15:34:38;;;;;;;76.28;41.13;;;6.40;95.10;;;;;;4804309;29;20066;-81
2021/11/25 15:37:05;;;;;;;84.10;46.22;;;6.30;95.10;;;;;;4819407;29;20054;-81
2021/11/25 15:39:31;;;;;;;84.55;47.25;;;6.30;95.20;;;;;;4814434;29;20086;-80
2021/11/25 15:41:56;;;;;;;76.40;40.85;;;6.30;95.40;;;;;;4811936;29;20074;-81
2021/11/25 15:44:22;;;;;;;81.45;43.80;;;6.30;95.60;;;;;;4817344;29;20030;-81
2021/11/25 15:46:48;;;;;;;87.60;46.03;;;6.20;95.30;;;;;;4826669;29;20126;-81
2021/11/25 15:49:14;;;;;;;81.38;42.88;;;6.20;95.50;;;;;;4815298;29;20083;-81
2021/11/25 15:51:41;;;;;;;76.47;42.38;;;6.10;95.50;;;;;;4817119;29;20058;-80
2021/11/25 15:54:07;;;;;;;69.90;39.15;;;6.10;95.60;;;;;;4825600;29;20114;-81
2021/11/25 15:56:32;;;;;;;85.13;45.13;;;6.10;95.70;;;;;;4849483;29;20026;-81
2021/11/25 15:58:58;;;;;;;81.88;40.97;;;6.00;95.90;;;;;;4842258;29;20114;-81
2021/11/25 16:01:24;;;;;;;72.53;39.92;;;6.00;95.80;;;;;;4833596;29;20109;-81
2021/11/25 16:03:50;;;;;;;79.05;42.80;;;5.90;95.90;;;;;;4828042;29;20229;-81
2021/11/25 16:06:16;;;;;;;86.97;41.50;;;5.90;96.00;;;;;;4831385;29;20029;-80
2021/11/25 16:08:42;;;;;;;79.53;39.70;;;5.90;96.30;;;;;;4813388;29;20035;-81
2021/11/25 16:11:07;;;;;;;85.32;44.33;;;5.80;96.30;;;;;;4830926;29;20049;-81
2021/11/25 16:13:46;;;;;;;86.07;43.92;;;5.80;96.30;;;;;;4857301;29;20038;-81
2021/11/25 16:16:12;;;;;;;81.05;44.38;;;5.80;96.40;;;;;;4817833;29;20026;-81
2021/11/25 16:18:39;;;;;;;81.15;42.08;;;5.70;96.50;;;;;;4854051;29;20027;-81
2021/11/25 16:21:05;;;;;;;83.53;43.85;;;5.70;96.60;;;;;;4832001;29;20061;-80
2021/11/25 16:23:30;;;;;;;80.57;41.55;;;5.70;96.40;;;;;;4836821;29;20242;-81
2021/11/25 16:25:57;;;;;;;83.47;42.05;;;5.70;96.40;;;;;;4802739;29;20042;-81
2021/11/25 16:28:23;;;;;;;81.37;42.97;;;5.60;96.30;;;;;;4834544;29;20049;-81
2021/11/25 16:30:52;;;;;;;78.68;43.10;;;5.60;96.30;;;;;;4801719;29;20022;-80
2021/11/25 16:33:22;;;;;;;75.90;41.30;;;5.50;96.10;;;;;;4853493;29;20118;-81
2021/11/25 16:35:48;;;;;;;80.55;44.45;;;5.50;96.10;;;;;;4851026;29;20030;-81
2021/11/25 16:38:14;;;;;;;80.88;42.80;;;5.40;96.20;;;;;;4831407;29;20382;-81
2021/11/25 16:40:43;;;;;;;83.78;45.65;;;5.40;96.20;;;;;;4836651;29;20050;-80
2021/11/25 16:43:10;;;;;;;79.53;43.03;;;5.30;96.30;;;;;;4835010;29;20384;-81
2021/11/25 16:45:36;;;;;;;83.72;44.22;;;5.30;96.30;;;;;;4831383;29;20022;-81